sensor_id;sensor_type;location;lat;lon;timestamp;pressure;altitude;pressure_sealevel;temperature;humidity
12146;BME280;6136;47.032;15.398;2023-02-26T00:01:41;96433.34;;;2.01;100.00
12146;BME280;6136;47.032;15.398;2023-02-26T00:04:09;96440.75;;;2.10;100.00
12146;BME280;6136;47.032;15.398;2023-02-26T00:06:39;96436.13;;;1.98;100.00
12146;BME280;6136;47.032;15.398;2023-02-26T00:09:20;96412.94;;;2.09;100.00
12146;BME280;6136;47.032;15.398;2023-02-26T00:11:50;96431.09;;;2.12;100.00
12146;BME280;6136;47.032;15.398;2023-02-26T00:14:19;96426.44;;;2.00;100.00
12146;BME280;6136;47.032;15.398;2023-02-26T00:16:53;96425.25;;;2.07;100.00
12146;BME280;6136;47.032;15.398;2023-02-26T00:19:25;96434.00;;;2.06;100.00
12146;BME280;6136;47.032;15.398;2023-02-26T00:21:53;96443.16;;;1.95;100.00
12146;BME280;6136;47.032;15.398;2023-02-26T00:24:22;96442.72;;;1.86;100.00
12146;BME280;6136;47.032;15.398;2023-02-26T00:26:51;96450.22;;;1.93;100.00
12146;BME280;6136;47.032;15.398;2023-02-26T00:29:21;96451.06;;;1.75;100.00
12146;BME280;6136;47.032;15.398;2023-02-26T00:31:50;96450.63;;;1.66;100.00
12146;BME280;6136;47.032;15.398;2023-02-26T00:34:19;96456.13;;;1.78;100.00
12146;BME280;6136;47.032;15.398;2023-02-26T00:36:51;96460.38;;;1.62;100.00
12146;BME280;6136;47.032;15.398;2023-02-26T00:39:34;96456.69;;;1.66;100.00
12146;BME280;6136;47.032;15.398;2023-02-26T00:42:08;96447.25;;;1.82;100.00
12146;BME280;6136;47.032;15.398;2023-02-26T00:44:38;96451.16;;;1.92;100.00
12146;BME280;6136;47.032;15.398;2023-02-26T00:47:09;96451.16;;;1.92;100.00
12146;BME280;6136;47.032;15.398;2023-02-26T00:49:51;96442.25;;;1.97;100.00
12146;BME280;6136;47.032;15.398;2023-02-26T00:52:28;96439.84;;;2.11;100.00
12146;BME280;6136;47.032;15.398;2023-02-26T00:54:58;96434.00;;;2.06;100.00
12146;BME280;6136;47.032;15.398;2023-02-26T00:57:27;96425.66;;;1.98;100.00
12146;BME280;6136;47.032;15.398;2023-02-26T00:59:55;96426.09;;;1.88;100.00
12146;BME280;6136;47.032;15.398;2023-02-26T01:02:24;96425.53;;;1.82;100.00
12146;BME280;6136;47.032;15.398;2023-02-26T01:04:53;96418.81;;;1.95;100.00
12146;BME280;6136;47.032;15.398;2023-02-26T01:07:22;96423.25;;;1.93;100.00
12146;BME280;6136;47.032;15.398;2023-02-26T01:09:52;96429.03;;;1.81;100.00
12146;BME280;6136;47.032;15.398;2023-02-26T01:12:20;96434.03;;;1.85;100.00
12146;BME280;6136;47.032;15.398;2023-02-26T01:14:51;96431.53;;;1.84;100.00
12146;BME280;6136;47.032;15.398;2023-02-26T01:17:22;96436.75;;;1.84;100.00
12146;BME280;6136;47.032;15.398;2023-02-26T01:19:54;96445.28;;;1.69;100.00
12146;BME280;6136;47.032;15.398;2023-02-26T01:22:28;96442.22;;;1.59;100.00
12146;BME280;6136;47.032;15.398;2023-02-26T01:25:01;96436.31;;;1.55;100.00
12146;BME280;6136;47.032;15.398;2023-02-26T01:27:31;96429.06;;;1.62;100.00
12146;BME280;6136;47.032;15.398;2023-02-26T01:30:01;96432.41;;;1.45;100.00
12146;BME280;6136;47.032;15.398;2023-02-26T01:32:40;96430.66;;;1.46;100.00
12146;BME280;6136;47.032;15.398;2023-02-26T01:38:03;96457.16;;;1.37;100.00
12146;BME280;6136;47.032;15.398;2023-02-26T01:40:55;96453.09;;;1.30;100.00
12146;BME280;6136;47.032;15.398;2023-02-26T01:43:35;96441.88;;;1.48;100.00
12146;BME280;6136;47.032;15.398;2023-02-26T01:46:13;96434.34;;;1.61;100.00
12146;BME280;6136;47.032;15.398;2023-02-26T01:48:49;96428.34;;;1.77;100.00
12146;BME280;6136;47.032;15.398;2023-02-26T01:54:04;96418.66;;;1.61;100.00
12146;BME280;6136;47.032;15.398;2023-02-26T01:56:32;96421.63;;;1.53;100.00
12146;BME280;6136;47.032;15.398;2023-02-26T01:59:01;96428.81;;;1.48;100.00
12146;BME280;6136;47.032;15.398;2023-02-26T02:01:35;96433.63;;;1.57;100.00
12146;BME280;6136;47.032;15.398;2023-02-26T02:04:06;96434.13;;;1.65;100.00
12146;BME280;6136;47.032;15.398;2023-02-26T02:06:35;96445.34;;;1.67;100.00
12146;BME280;6136;47.032;15.398;2023-02-26T02:09:04;96443.88;;;1.62;100.00
12146;BME280;6136;47.032;15.398;2023-02-26T02:11:34;96448.63;;;1.52;100.00
12146;BME280;6136;47.032;15.398;2023-02-26T02:14:08;96448.19;;;1.42;100.00
12146;BME280;6136;47.032;15.398;2023-02-26T02:16:47;96453.34;;;1.44;100.00
12146;BME280;6136;47.032;15.398;2023-02-26T02:19:49;96438.88;;;1.37;100.00
12146;BME280;6136;47.032;15.398;2023-02-26T02:22:36;96445.81;;;1.56;100.00
12146;BME280;6136;47.032;15.398;2023-02-26T02:25:22;96447.84;;;1.70;100.00
12146;BME280;6136;47.032;15.398;2023-02-26T02:28:04;96450.38;;;1.90;100.00
12146;BME280;6136;47.032;15.398;2023-02-26T02:30:55;96455.44;;;1.93;100.00
12146;BME280;6136;47.032;15.398;2023-02-26T02:33:29;96459.13;;;1.89;100.00
12146;BME280;6136;47.032;15.398;2023-02-26T02:36:02;96459.13;;;1.89;100.00
12146;BME280;6136;47.032;15.398;2023-02-26T02:38:34;96455.88;;;1.84;100.00
12146;BME280;6136;47.032;15.398;2023-02-26T02:41:08;96459.00;;;1.92;100.00
12146;BME280;6136;47.032;15.398;2023-02-26T02:43:39;96457.16;;;1.76;100.00
12146;BME280;6136;47.032;15.398;2023-02-26T02:46:13;96474.22;;;1.83;100.00
12146;BME280;6136;47.032;15.398;2023-02-26T02:48:45;96474.72;;;1.91;100.00
12146;BME280;6136;47.032;15.398;2023-02-26T02:51:20;96480.38;;;2.01;100.00
12146;BME280;6136;47.032;15.398;2023-02-26T02:53:53;96479.31;;;2.05;100.00
12146;BME280;6136;47.032;15.398;2023-02-26T02:56:25;96490.69;;;2.04;100.00
12146;BME280;6136;47.032;15.398;2023-02-26T02:59:00;96487.44;;;1.99;100.00
12146;BME280;6136;47.032;15.398;2023-02-26T03:01:32;96494.00;;;1.88;100.00
12146;BME280;6136;47.032;15.398;2023-02-26T03:04:05;96492.22;;;1.89;100.00
12146;BME280;6136;47.032;15.398;2023-02-26T03:06:35;96499.91;;;1.73;100.00
12146;BME280;6136;47.032;15.398;2023-02-26T03:09:06;96493.97;;;1.70;100.00
12146;BME280;6136;47.032;15.398;2023-02-26T03:11:35;96509.50;;;1.73;100.00
12146;BME280;6136;47.032;15.398;2023-02-26T03:14:04;96497.56;;;1.67;100.00
12146;BME280;6136;47.032;15.398;2023-02-26T03:16:48;96497.06;;;1.59;100.00
12146;BME280;6136;47.032;15.398;2023-02-26T03:19:27;96516.50;;;1.52;100.00
12146;BME280;6136;47.032;15.398;2023-02-26T03:22:02;96523.56;;;1.50;100.00
12146;BME280;6136;47.032;15.398;2023-02-26T03:24:55;96527.06;;;1.49;100.00
12146;BME280;6136;47.032;15.398;2023-02-26T03:27:32;96533.34;;;1.45;100.00
12146;BME280;6136;47.032;15.398;2023-02-26T03:30:04;96541.25;;;1.43;100.00
12146;BME280;6136;47.032;15.398;2023-02-26T03:32:50;96535.56;;;1.34;100.00
12146;BME280;6136;47.032;15.398;2023-02-26T03:35:26;96532.13;;;1.33;100.00
12146;BME280;6136;47.032;15.398;2023-02-26T03:38:00;96535.97;;;1.25;100.00
12146;BME280;6136;47.032;15.398;2023-02-26T03:40:34;96538.84;;;1.19;100.00
12146;BME280;6136;47.032;15.398;2023-02-26T03:43:08;96543.38;;;1.13;100.00
12146;BME280;6136;47.032;15.398;2023-02-26T03:45:41;96539.81;;;1.16;100.00
12146;BME280;6136;47.032;15.398;2023-02-26T03:48:18;96522.25;;;1.20;100.00
12146;BME280;6136;47.032;15.398;2023-02-26T03:50:50;96533.47;;;1.22;100.00
12146;BME280;6136;47.032;15.398;2023-02-26T03:53:42;96531.66;;;1.24;100.00
12146;BME280;6136;47.032;15.398;2023-02-26T03:56:18;96526.44;;;1.24;100.00
12146;BME280;6136;47.032;15.398;2023-02-26T03:59:07;96523.09;;;1.20;100.00
12146;BME280;6136;47.032;15.398;2023-02-26T04:01:47;96511.63;;;1.24;100.00
12146;BME280;6136;47.032;15.398;2023-02-26T04:04:22;96515.41;;;1.37;100.00
12146;BME280;6136;47.032;15.398;2023-02-26T04:06:52;96527.34;;;1.43;100.00
12146;BME280;6136;47.032;15.398;2023-02-26T04:09:21;96526.16;;;1.30;100.00
12146;BME280;6136;47.032;15.398;2023-02-26T04:11:52;96538.03;;;1.37;100.00
12146;BME280;6136;47.032;15.398;2023-02-26T04:14:22;96540.53;;;1.40;100.00
12146;BME280;6136;47.032;15.398;2023-02-26T04:16:52;96545.81;;;1.38;100.00
12146;BME280;6136;47.032;15.398;2023-02-26T04:19:22;96540.91;;;1.31;100.00
12146;BME280;6136;47.032;15.398;2023-02-26T04:21:51;96540.97;;;1.29;100.00
12146;BME280;6136;47.032;15.398;2023-02-26T04:24:19;96541.84;;;1.30;100.00
12146;BME280;6136;47.032;15.398;2023-02-26T04:26:48;96549.78;;;1.27;100.00
12146;BME280;6136;47.032;15.398;2023-02-26T04:29:16;96545.34;;;1.29;100.00
12146;BME280;6136;47.032;15.398;2023-02-26T04:31:45;96551.88;;;1.39;100.00
12146;BME280;6136;47.032;15.398;2023-02-26T04:34:13;96559.41;;;1.46;100.00
12146;BME280;6136;47.032;15.398;2023-02-26T04:36:43;96555.78;;;1.29;100.00
12146;BME280;6136;47.032;15.398;2023-02-26T04:39:12;96567.44;;;1.20;100.00
12146;BME280;6136;47.032;15.398;2023-02-26T04:41:40;96561.97;;;1.26;100.00
12146;BME280;6136;47.032;15.398;2023-02-26T04:44:08;96569.16;;;1.21;100.00
12146;BME280;6136;47.032;15.398;2023-02-26T04:46:40;96572.41;;;1.26;100.00
12146;BME280;6136;47.032;15.398;2023-02-26T04:49:08;96579.16;;;1.32;100.00
12146;BME280;6136;47.032;15.398;2023-02-26T04:51:40;96580.59;;;1.19;100.00
12146;BME280;6136;47.032;15.398;2023-02-26T04:54:12;96569.34;;;1.16;100.00
12146;BME280;6136;47.032;15.398;2023-02-26T04:56:40;96583.94;;;1.21;100.00
12146;BME280;6136;47.032;15.398;2023-02-26T04:59:09;96591.63;;;1.25;100.00
12146;BME280;6136;47.032;15.398;2023-02-26T05:01:37;96586.19;;;1.30;100.00
12146;BME280;6136;47.032;15.398;2023-02-26T05:04:07;96591.28;;;1.33;100.00
12146;BME280;6136;47.032;15.398;2023-02-26T05:06:35;96590.25;;;1.37;100.00
12146;BME280;6136;47.032;15.398;2023-02-26T05:09:04;96591.69;;;1.44;100.00
12146;BME280;6136;47.032;15.398;2023-02-26T05:11:34;96598.72;;;1.42;100.00
12146;BME280;6136;47.032;15.398;2023-02-26T05:14:05;96606.00;;;1.34;100.00
12146;BME280;6136;47.032;15.398;2023-02-26T05:16:34;96605.88;;;1.16;100.00
12146;BME280;6136;47.032;15.398;2023-02-26T05:19:02;96595.66;;;1.32;100.00
12146;BME280;6136;47.032;15.398;2023-02-26T05:21:30;96602.91;;;1.26;100.00
12146;BME280;6136;47.032;15.398;2023-02-26T05:23:58;96608.97;;;1.04;100.00
12146;BME280;6136;47.032;15.398;2023-02-26T05:26:27;96616.72;;;1.06;100.00
12146;BME280;6136;47.032;15.398;2023-02-26T05:28:56;96609.81;;;1.05;100.00
12146;BME280;6136;47.032;15.398;2023-02-26T05:31:25;96610.09;;;1.19;100.00
12146;BME280;6136;47.032;15.398;2023-02-26T05:33:54;96620.13;;;1.08;100.00
12146;BME280;6136;47.032;15.398;2023-02-26T05:36:22;96624.75;;;1.23;100.00
12146;BME280;6136;47.032;15.398;2023-02-26T05:38:50;96611.88;;;1.19;100.00
12146;BME280;6136;47.032;15.398;2023-02-26T05:41:19;96614.91;;;1.30;100.00
12146;BME280;6136;47.032;15.398;2023-02-26T05:43:48;96620.13;;;1.30;100.00
12146;BME280;6136;47.032;15.398;2023-02-26T05:46:17;96608.41;;;1.40;100.00
12146;BME280;6136;47.032;15.398;2023-02-26T05:48:45;96612.31;;;1.50;100.00
12146;BME280;6136;47.032;15.398;2023-02-26T05:51:14;96622.63;;;1.53;100.00
12146;BME280;6136;47.032;15.398;2023-02-26T05:53:42;96623.34;;;1.56;100.00
12146;BME280;6136;47.032;15.398;2023-02-26T05:56:10;96624.19;;;1.57;100.00
12146;BME280;6136;47.032;15.398;2023-02-26T05:58:38;96626.47;;;1.65;100.00
12146;BME280;6136;47.032;15.398;2023-02-26T06:01:06;96624.59;;;1.48;100.00
12146;BME280;6136;47.032;15.398;2023-02-26T06:03:36;96618.84;;;1.40;100.00
12146;BME280;6136;47.032;15.398;2023-02-26T06:06:06;96622.94;;;1.25;100.00
12146;BME280;6136;47.032;15.398;2023-02-26T06:08:35;96627.66;;;1.15;100.00
12146;BME280;6136;47.032;15.398;2023-02-26T06:11:04;96633.47;;;1.22;100.00
12146;BME280;6136;47.032;15.398;2023-02-26T06:13:32;96642.44;;;1.37;100.00
12146;BME280;6136;47.032;15.398;2023-02-26T06:16:01;96651.19;;;1.36;100.00
12146;BME280;6136;47.032;15.398;2023-02-26T06:18:29;96659.19;;;1.31;100.00
12146;BME280;6136;47.032;15.398;2023-02-26T06:21:00;96665.63;;;1.23;100.00
12146;BME280;6136;47.032;15.398;2023-02-26T06:23:29;96668.13;;;1.26;100.00
12146;BME280;6136;47.032;15.398;2023-02-26T06:25:57;96675.81;;;1.29;100.00
12146;BME280;6136;47.032;15.398;2023-02-26T06:28:25;96670.34;;;1.35;100.00
12146;BME280;6136;47.032;15.398;2023-02-26T06:30:54;96670.59;;;1.29;100.00
12146;BME280;6136;47.032;15.398;2023-02-26T06:33:22;96676.06;;;1.23;100.00
12146;BME280;6136;47.032;15.398;2023-02-26T06:35:50;96679.47;;;1.25;100.00
12146;BME280;6136;47.032;15.398;2023-02-26T06:38:20;96681.69;;;1.34;100.00
12146;BME280;6136;47.032;15.398;2023-02-26T06:40:48;96681.88;;;1.51;100.00
12146;BME280;6136;47.032;15.398;2023-02-26T06:43:16;96682.25;;;1.42;100.00
12146;BME280;6136;47.032;15.398;2023-02-26T06:45:45;96679.91;;;1.56;100.00
12146;BME280;6136;47.032;15.398;2023-02-26T06:48:13;96674.81;;;1.75;100.00
12146;BME280;6136;47.032;15.398;2023-02-26T06:50:41;96686.38;;;1.69;100.00
12146;BME280;6136;47.032;15.398;2023-02-26T06:53:09;96694.56;;;1.60;100.00
12146;BME280;6136;47.032;15.398;2023-02-26T06:55:43;96693.69;;;1.81;100.00
12146;BME280;6136;47.032;15.398;2023-02-26T06:58:12;96700.50;;;2.06;100.00
12146;BME280;6136;47.032;15.398;2023-02-26T07:00:40;96700.03;;;1.96;100.00
12146;BME280;6136;47.032;15.398;2023-02-26T07:03:11;96701.41;;;2.05;100.00
12146;BME280;6136;47.032;15.398;2023-02-26T07:05:40;96695.28;;;2.06;100.00
12146;BME280;6136;47.032;15.398;2023-02-26T07:08:08;96703.38;;;2.20;100.00
12146;BME280;6136;47.032;15.398;2023-02-26T07:10:37;96710.16;;;2.04;100.00
12146;BME280;6136;47.032;15.398;2023-02-26T07:13:06;96700.59;;;2.23;100.00
12146;BME280;6136;47.032;15.398;2023-02-26T07:15:35;96710.81;;;2.29;100.00
12146;BME280;6136;47.032;15.398;2023-02-26T07:18:03;96713.16;;;3.30;100.00
12146;BME280;6136;47.032;15.398;2023-02-26T07:20:31;96705.06;;;4.07;100.00
12146;BME280;6136;47.032;15.398;2023-02-26T07:22:59;96714.81;;;4.38;100.00
12146;BME280;6136;47.032;15.398;2023-02-26T07:25:28;96712.84;;;3.91;100.00
12146;BME280;6136;47.032;15.398;2023-02-26T07:27:56;96725.94;;;3.91;96.46
12146;BME280;6136;47.032;15.398;2023-02-26T07:30:27;96727.06;;;3.49;97.41
12146;BME280;6136;47.032;15.398;2023-02-26T07:32:56;96713.97;;;3.49;100.00
12146;BME280;6136;47.032;15.398;2023-02-26T07:35:24;96722.56;;;3.34;100.00
12146;BME280;6136;47.032;15.398;2023-02-26T07:37:53;96718.75;;;3.23;100.00
12146;BME280;6136;47.032;15.398;2023-02-26T07:40:21;96732.47;;;3.46;100.00
12146;BME280;6136;47.032;15.398;2023-02-26T07:42:49;96739.91;;;3.56;96.78
12146;BME280;6136;47.032;15.398;2023-02-26T07:45:17;96738.28;;;3.53;94.47
12146;BME280;6136;47.032;15.398;2023-02-26T07:47:51;96732.19;;;4.06;93.02
12146;BME280;6136;47.032;15.398;2023-02-26T07:50:20;96736.28;;;4.11;91.00
12146;BME280;6136;47.032;15.398;2023-02-26T07:52:51;96739.84;;;4.27;90.37
12146;BME280;6136;47.032;15.398;2023-02-26T07:55:20;96743.53;;;4.06;83.64
12146;BME280;6136;47.032;15.398;2023-02-26T07:57:48;96743.19;;;4.47;81.30
12146;BME280;6136;47.032;15.398;2023-02-26T08:00:17;96737.19;;;4.45;80.73
12146;BME280;6136;47.032;15.398;2023-02-26T08:02:46;96736.56;;;4.57;80.91
12146;BME280;6136;47.032;15.398;2023-02-26T08:05:16;96746.88;;;4.77;78.60
12146;BME280;6136;47.032;15.398;2023-02-26T08:07:44;96746.47;;;5.49;77.46
12146;BME280;6136;47.032;15.398;2023-02-26T08:10:12;96752.06;;;5.43;74.78
12146;BME280;6136;47.032;15.398;2023-02-26T08:12:40;96750.88;;;5.80;76.48
12146;BME280;6136;47.032;15.398;2023-02-26T08:15:09;96747.31;;;5.65;72.36
12146;BME280;6136;47.032;15.398;2023-02-26T08:17:40;96749.44;;;5.43;73.18
12146;BME280;6136;47.032;15.398;2023-02-26T08:20:10;96758.88;;;5.63;72.22
12146;BME280;6136;47.032;15.398;2023-02-26T08:22:42;96755.66;;;4.76;76.52
12146;BME280;6136;47.032;15.398;2023-02-26T08:25:10;96758.16;;;4.10;78.45
12146;BME280;6136;47.032;15.398;2023-02-26T08:27:39;96752.50;;;4.69;78.58
12146;BME280;6136;47.032;15.398;2023-02-26T08:30:08;96769.66;;;4.59;76.27
12146;BME280;6136;47.032;15.398;2023-02-26T08:32:37;96776.00;;;4.73;72.73
12146;BME280;6136;47.032;15.398;2023-02-26T08:35:08;96791.88;;;4.18;74.52
12146;BME280;6136;47.032;15.398;2023-02-26T08:37:37;96804.59;;;4.77;73.82
12146;BME280;6136;47.032;15.398;2023-02-26T08:40:08;96803.72;;;5.11;73.81
12146;BME280;6136;47.032;15.398;2023-02-26T08:42:39;96788.28;;;5.69;71.20
12146;BME280;6136;47.032;15.398;2023-02-26T08:45:08;96792.50;;;5.07;68.13
12146;BME280;6136;47.032;15.398;2023-02-26T08:47:37;96805.78;;;5.04;69.57
12146;BME280;6136;47.032;15.398;2023-02-26T08:50:21;96816.03;;;5.42;68.96
12146;BME280;6136;47.032;15.398;2023-02-26T08:52:49;96816.84;;;5.75;70.92
12146;BME280;6136;47.032;15.398;2023-02-26T08:55:19;96833.06;;;5.35;68.57
12146;BME280;6136;47.032;15.398;2023-02-26T08:57:47;96844.88;;;5.43;68.01
12146;BME280;6136;47.032;15.398;2023-02-26T09:00:16;96840.16;;;5.17;67.58
12146;BME280;6136;47.032;15.398;2023-02-26T09:02:45;96842.84;;;5.64;65.50
12146;BME280;6136;47.032;15.398;2023-02-26T09:05:13;96850.81;;;5.14;62.93
12146;BME280;6136;47.032;15.398;2023-02-26T09:07:42;96848.41;;;6.22;64.50
12146;BME280;6136;47.032;15.398;2023-02-26T09:10:12;96861.38;;;6.41;59.78
12146;BME280;6136;47.032;15.398;2023-02-26T09:12:42;96860.25;;;7.05;57.86
12146;BME280;6136;47.032;15.398;2023-02-26T09:15:11;96872.69;;;7.03;60.06
12146;BME280;6136;47.032;15.398;2023-02-26T09:17:41;96849.47;;;5.71;58.36
12146;BME280;6136;47.032;15.398;2023-02-26T09:20:10;96856.00;;;4.98;62.37
12146;BME280;6136;47.032;15.398;2023-02-26T09:22:39;96860.78;;;5.07;65.30
12146;BME280;6136;47.032;15.398;2023-02-26T09:25:09;96869.28;;;4.78;60.92
12146;BME280;6136;47.032;15.398;2023-02-26T09:27:37;96869.09;;;5.33;60.22
12146;BME280;6136;47.032;15.398;2023-02-26T09:30:09;96875.56;;;6.23;62.20
12146;BME280;6136;47.032;15.398;2023-02-26T09:32:37;96875.28;;;5.32;62.26
12146;BME280;6136;47.032;15.398;2023-02-26T09:35:06;96868.88;;;5.20;63.27
12146;BME280;6136;47.032;15.398;2023-02-26T09:37:35;96868.88;;;5.53;69.34
12146;BME280;6136;47.032;15.398;2023-02-26T09:40:05;96869.56;;;6.05;63.05
12146;BME280;6136;47.032;15.398;2023-02-26T09:42:47;96876.16;;;5.48;60.94
12146;BME280;6136;47.032;15.398;2023-02-26T09:45:25;96874.91;;;6.19;62.41
12146;BME280;6136;47.032;15.398;2023-02-26T09:47:56;96878.19;;;7.43;59.04
12146;BME280;6136;47.032;15.398;2023-02-26T09:50:31;96880.88;;;7.13;52.75
12146;BME280;6136;47.032;15.398;2023-02-26T09:53:08;96872.81;;;6.56;54.18
12146;BME280;6136;47.032;15.398;2023-02-26T09:55:41;96877.28;;;6.70;56.47
12146;BME280;6136;47.032;15.398;2023-02-26T09:58:15;96883.00;;;6.62;57.10
12146;BME280;6136;47.032;15.398;2023-02-26T10:00:54;96887.63;;;6.88;55.73
12146;BME280;6136;47.032;15.398;2023-02-26T10:03:29;96882.34;;;7.32;54.31
12146;BME280;6136;47.032;15.398;2023-02-26T10:06:12;96874.38;;;6.44;55.59
12146;BME280;6136;47.032;15.398;2023-02-26T10:08:54;96882.13;;;6.61;58.23
12146;BME280;6136;47.032;15.398;2023-02-26T10:11:30;96873.19;;;6.34;57.39
12146;BME280;6136;47.032;15.398;2023-02-26T10:14:03;96897.81;;;6.33;56.23
12146;BME280;6136;47.032;15.398;2023-02-26T10:16:38;96887.75;;;6.55;56.58
12146;BME280;6136;47.032;15.398;2023-02-26T10:19:13;96885.88;;;6.73;55.29
12146;BME280;6136;47.032;15.398;2023-02-26T10:21:46;96882.00;;;7.09;56.51
12146;BME280;6136;47.032;15.398;2023-02-26T10:24:20;96902.84;;;6.97;54.51
12146;BME280;6136;47.032;15.398;2023-02-26T10:26:53;96897.53;;;7.13;53.53
12146;BME280;6136;47.032;15.398;2023-02-26T10:29:30;96902.56;;;7.18;53.13
12146;BME280;6136;47.032;15.398;2023-02-26T10:32:14;96896.97;;;7.08;53.20
12146;BME280;6136;47.032;15.398;2023-02-26T10:34:51;96894.38;;;7.22;55.70
12146;BME280;6136;47.032;15.398;2023-02-26T10:37:23;96884.22;;;7.59;53.45
12146;BME280;6136;47.032;15.398;2023-02-26T10:40:01;96897.25;;;6.74;55.31
12146;BME280;6136;47.032;15.398;2023-02-26T10:42:38;96892.97;;;6.87;55.67
12146;BME280;6136;47.032;15.398;2023-02-26T10:45:21;96894.38;;;7.22;51.50
12146;BME280;6136;47.032;15.398;2023-02-26T10:48:02;96900.53;;;7.65;51.02
12146;BME280;6136;47.032;15.398;2023-02-26T10:50:32;96904.47;;;8.01;53.14
12146;BME280;6136;47.032;15.398;2023-02-26T10:53:01;96926.53;;;8.00;51.36
12146;BME280;6136;47.032;15.398;2023-02-26T10:55:37;96910.56;;;8.15;55.57
12146;BME280;6136;47.032;15.398;2023-02-26T10:58:11;96911.53;;;8.14;58.31
12146;BME280;6136;47.032;15.398;2023-02-26T11:00:43;96928.50;;;8.66;56.67
12146;BME280;6136;47.032;15.398;2023-02-26T11:03:16;96922.56;;;8.62;55.32
12146;BME280;6136;47.032;15.398;2023-02-26T11:05:46;96921.22;;;8.69;58.99
12146;BME280;6136;47.032;15.398;2023-02-26T11:08:19;96915.31;;;9.05;52.43
12146;BME280;6136;47.032;15.398;2023-02-26T11:10:52;96913.31;;;8.96;51.63
12146;BME280;6136;47.032;15.398;2023-02-26T11:13:22;96904.88;;;9.04;51.54
12146;BME280;6136;47.032;15.398;2023-02-26T11:15:52;96895.53;;;7.89;56.53
12146;BME280;6136;47.032;15.398;2023-02-26T11:18:27;96912.94;;;8.34;51.92
12146;BME280;6136;47.032;15.398;2023-02-26T11:20:58;96910.31;;;8.61;56.09
12146;BME280;6136;47.032;15.398;2023-02-26T11:23:30;96907.38;;;8.10;52.54
12146;BME280;6136;47.032;15.398;2023-02-26T11:26:03;96916.19;;;8.52;55.05
12146;BME280;6136;47.032;15.398;2023-02-26T11:28:36;96904.66;;;8.53;49.70
12146;BME280;6136;47.032;15.398;2023-02-26T11:31:07;96908.19;;;8.80;53.91
12146;BME280;6136;47.032;15.398;2023-02-26T11:33:40;96895.16;;;7.95;55.53
12146;BME280;6136;47.032;15.398;2023-02-26T11:36:14;96907.84;;;8.31;56.39
12146;BME280;6136;47.032;15.398;2023-02-26T11:38:44;96903.41;;;8.32;55.58
12146;BME280;6136;47.032;15.398;2023-02-26T11:41:15;96907.94;;;8.01;49.24
12146;BME280;6136;47.032;15.398;2023-02-26T11:43:48;96906.78;;;8.48;57.66
12146;BME280;6136;47.032;15.398;2023-02-26T11:46:22;96903.53;;;8.57;58.58
12146;BME280;6136;47.032;15.398;2023-02-26T11:48:54;96904.25;;;8.32;55.40
12146;BME280;6136;47.032;15.398;2023-02-26T11:51:27;96912.09;;;8.05;56.14
12146;BME280;6136;47.032;15.398;2023-02-26T11:53:58;96907.56;;;7.93;51.44
12146;BME280;6136;47.032;15.398;2023-02-26T11:56:30;96917.00;;;7.55;51.59
12146;BME280;6136;47.032;15.398;2023-02-26T11:59:05;96911.03;;;7.23;54.38
12146;BME280;6136;47.032;15.398;2023-02-26T12:01:35;96909.00;;;7.12;53.94
12146;BME280;6136;47.032;15.398;2023-02-26T12:04:09;96917.06;;;6.49;52.81
12146;BME280;6136;47.032;15.398;2023-02-26T12:06:39;96920.56;;;6.34;54.12
12146;BME280;6136;47.032;15.398;2023-02-26T12:09:10;96921.22;;;6.38;53.23
12146;BME280;6136;47.032;15.398;2023-02-26T12:12:12;96914.00;;;6.10;52.82
12146;BME280;6136;47.032;15.398;2023-02-26T12:14:52;96916.81;;;5.91;51.29
12146;BME280;6136;47.032;15.398;2023-02-26T12:20:32;96923.56;;;5.29;55.16
12146;BME280;6136;47.032;15.398;2023-02-26T12:23:20;96930.84;;;5.24;56.19
12146;BME280;6136;47.032;15.398;2023-02-26T12:26:18;96943.25;;;5.38;56.36
12146;BME280;6136;47.032;15.398;2023-02-26T12:29:06;96949.06;;;5.10;57.42
12146;BME280;6136;47.032;15.398;2023-02-26T12:32:04;96953.00;;;5.19;58.81
12146;BME280;6136;47.032;15.398;2023-02-26T12:34:53;96964.59;;;5.15;56.05
12146;BME280;6136;47.032;15.398;2023-02-26T12:37:36;96964.81;;;5.10;56.18
12146;BME280;6136;47.032;15.398;2023-02-26T12:40:24;96968.59;;;5.04;56.57
12146;BME280;6136;47.032;15.398;2023-02-26T12:43:05;96973.53;;;4.93;56.57
12146;BME280;6136;47.032;15.398;2023-02-26T12:45:44;96976.63;;;5.01;59.57
12146;BME280;6136;47.032;15.398;2023-02-26T12:48:40;96980.84;;;5.04;57.86
12146;BME280;6136;47.032;15.398;2023-02-26T12:51:21;96982.50;;;5.06;52.87
12146;BME280;6136;47.032;15.398;2023-02-26T12:54:23;96978.00;;;4.91;52.71
12146;BME280;6136;47.032;15.398;2023-02-26T13:00:21;96981.81;;;4.67;67.91
12146;BME280;6136;47.032;15.398;2023-02-26T13:03:20;96989.44;;;4.54;68.39
12146;BME280;6136;47.032;15.398;2023-02-26T13:06:13;96997.53;;;4.50;68.65
12146;BME280;6136;47.032;15.398;2023-02-26T13:08:56;96996.63;;;4.68;70.00
12146;BME280;6136;47.032;15.398;2023-02-26T13:11:43;97000.47;;;4.80;71.42
12146;BME280;6136;47.032;15.398;2023-02-26T13:14:25;97002.66;;;4.89;67.39
12146;BME280;6136;47.032;15.398;2023-02-26T13:17:03;97001.31;;;4.80;70.24
12146;BME280;6136;47.032;15.398;2023-02-26T13:19:42;96999.91;;;4.73;69.39
12146;BME280;6136;47.032;15.398;2023-02-26T13:22:20;97009.47;;;4.74;70.52
12146;BME280;6136;47.032;15.398;2023-02-26T13:24:55;97002.06;;;4.82;67.70
12146;BME280;6136;47.032;15.398;2023-02-26T13:27:29;97007.44;;;4.62;68.00
12146;BME280;6136;47.032;15.398;2023-02-26T13:30:13;97010.97;;;4.80;69.52
12146;BME280;6136;47.032;15.398;2023-02-26T13:32:46;97018.84;;;4.80;69.76
12146;BME280;6136;47.032;15.398;2023-02-26T13:35:20;97018.84;;;4.80;65.31
12146;BME280;6136;47.032;15.398;2023-02-26T13:37:52;97017.19;;;4.77;64.88
12146;BME280;6136;47.032;15.398;2023-02-26T13:40:40;97019.56;;;4.46;67.16
12146;BME280;6136;47.032;15.398;2023-02-26T13:43:26;97029.97;;;4.47;69.41
12146;BME280;6136;47.032;15.398;2023-02-26T13:46:11;97021.13;;;4.50;69.86
12146;BME280;6136;47.032;15.398;2023-02-26T13:48:55;97034.88;;;4.55;67.75